sensor_id;sensor_type;location;lat;lon;timestamp;temperature;humidity
9658;DHT22;4867;48.112;11.622;2024-02-26T00:01:04;2.80;99.90
9658;DHT22;4867;48.112;11.622;2024-02-26T00:03:35;2.80;99.90
9658;DHT22;4867;48.112;11.622;2024-02-26T00:06:03;2.80;99.90
9658;DHT22;4867;48.112;11.622;2024-02-26T00:08:32;2.80;99.90
9658;DHT22;4867;48.112;11.622;2024-02-26T00:11:02;2.80;99.90
9658;DHT22;4867;48.112;11.622;2024-02-26T00:13:30;2.80;99.90
9658;DHT22;4867;48.112;11.622;2024-02-26T00:15:57;2.80;99.90
9658;DHT22;4867;48.112;11.622;2024-02-26T00:18:24;2.80;99.90
9658;DHT22;4867;48.112;11.622;2024-02-26T00:20:52;2.80;99.90
9658;DHT22;4867;48.112;11.622;2024-02-26T00:23:19;2.70;99.90
9658;DHT22;4867;48.112;11.622;2024-02-26T00:25:47;2.70;99.90
9658;DHT22;4867;48.112;11.622;2024-02-26T00:28:15;2.60;99.90
9658;DHT22;4867;48.112;11.622;2024-02-26T00:30:43;2.40;99.90
9658;DHT22;4867;48.112;11.622;2024-02-26T00:33:16;2.50;99.90
9658;DHT22;4867;48.112;11.622;2024-02-26T00:35:44;2.50;99.90
9658;DHT22;4867;48.112;11.622;2024-02-26T00:38:11;2.40;99.90
9658;DHT22;4867;48.112;11.622;2024-02-26T00:40:39;2.40;99.90
9658;DHT22;4867;48.112;11.622;2024-02-26T00:43:08;2.40;99.90
9658;DHT22;4867;48.112;11.622;2024-02-26T00:45:35;2.50;99.90
9658;DHT22;4867;48.112;11.622;2024-02-26T00:48:03;2.50;99.90
9658;DHT22;4867;48.112;11.622;2024-02-26T00:50:35;2.50;99.90
9658;DHT22;4867;48.112;11.622;2024-02-26T00:53:04;2.50;99.90
9658;DHT22;4867;48.112;11.622;2024-02-26T00:55:32;2.50;99.90
9658;DHT22;4867;48.112;11.622;2024-02-26T00:57:59;2.50;99.90
9658;DHT22;4867;48.112;11.622;2024-02-26T01:00:27;2.60;99.90
9658;DHT22;4867;48.112;11.622;2024-02-26T01:02:54;2.50;99.90
9658;DHT22;4867;48.112;11.622;2024-02-26T01:05:22;2.50;99.90
9658;DHT22;4867;48.112;11.622;2024-02-26T01:07:49;2.50;99.90
9658;DHT22;4867;48.112;11.622;2024-02-26T01:10:17;2.50;99.90
9658;DHT22;4867;48.112;11.622;2024-02-26T01:12:44;2.50;99.90
9658;DHT22;4867;48.112;11.622;2024-02-26T01:15:12;2.50;99.90
9658;DHT22;4867;48.112;11.622;2024-02-26T01:17:40;2.50;99.90
9658;DHT22;4867;48.112;11.622;2024-02-26T01:20:08;2.50;99.90
9658;DHT22;4867;48.112;11.622;2024-02-26T01:22:36;2.50;99.90
9658;DHT22;4867;48.112;11.622;2024-02-26T01:25:04;2.40;99.90
9658;DHT22;4867;48.112;11.622;2024-02-26T01:27:31;2.40;99.90
9658;DHT22;4867;48.112;11.622;2024-02-26T01:29:59;2.40;99.90
9658;DHT22;4867;48.112;11.622;2024-02-26T01:32:27;2.40;99.90
9658;DHT22;4867;48.112;11.622;2024-02-26T01:34:54;2.40;99.90
9658;DHT22;4867;48.112;11.622;2024-02-26T01:37:22;2.50;99.90
9658;DHT22;4867;48.112;11.622;2024-02-26T01:39:50;2.40;99.90
9658;DHT22;4867;48.112;11.622;2024-02-26T01:42:17;2.40;99.90
9658;DHT22;4867;48.112;11.622;2024-02-26T01:44:45;2.40;99.90
9658;DHT22;4867;48.112;11.622;2024-02-26T01:47:13;2.40;99.90
9658;DHT22;4867;48.112;11.622;2024-02-26T01:49:41;2.40;99.90
9658;DHT22;4867;48.112;11.622;2024-02-26T01:52:10;2.30;99.90
9658;DHT22;4867;48.112;11.622;2024-02-26T01:54:39;2.30;99.90
9658;DHT22;4867;48.112;11.622;2024-02-26T01:57:08;2.30;99.90
9658;DHT22;4867;48.112;11.622;2024-02-26T01:59:36;2.20;99.90
9658;DHT22;4867;48.112;11.622;2024-02-26T02:02:06;2.20;99.90
9658;DHT22;4867;48.112;11.622;2024-02-26T02:04:36;2.20;99.90
9658;DHT22;4867;48.112;11.622;2024-02-26T02:07:04;2.10;99.90
9658;DHT22;4867;48.112;11.622;2024-02-26T02:09:36;2.10;99.90
9658;DHT22;4867;48.112;11.622;2024-02-26T02:12:04;2.10;99.90
9658;DHT22;4867;48.112;11.622;2024-02-26T02:14:33;2.10;99.90
9658;DHT22;4867;48.112;11.622;2024-02-26T02:17:00;2.10;99.90
9658;DHT22;4867;48.112;11.622;2024-02-26T02:19:28;2.00;99.90
9658;DHT22;4867;48.112;11.622;2024-02-26T02:21:56;2.10;99.90
9658;DHT22;4867;48.112;11.622;2024-02-26T02:24:24;2.10;99.90
9658;DHT22;4867;48.112;11.622;2024-02-26T02:26:52;2.00;99.90
9658;DHT22;4867;48.112;11.622;2024-02-26T02:29:20;2.00;99.90
9658;DHT22;4867;48.112;11.622;2024-02-26T02:31:48;2.00;99.90
9658;DHT22;4867;48.112;11.622;2024-02-26T02:34:16;2.00;99.90
9658;DHT22;4867;48.112;11.622;2024-02-26T02:36:54;2.00;99.90
9658;DHT22;4867;48.112;11.622;2024-02-26T02:39:22;2.10;99.90
9658;DHT22;4867;48.112;11.622;2024-02-26T02:41:50;2.00;99.90
9658;DHT22;4867;48.112;11.622;2024-02-26T02:44:17;2.00;99.90
9658;DHT22;4867;48.112;11.622;2024-02-26T02:46:45;2.00;99.90
9658;DHT22;4867;48.112;11.622;2024-02-26T02:49:15;2.00;99.90
9658;DHT22;4867;48.112;11.622;2024-02-26T02:51:44;2.00;99.90
9658;DHT22;4867;48.112;11.622;2024-02-26T02:54:11;2.00;99.90
9658;DHT22;4867;48.112;11.622;2024-02-26T02:56:39;2.00;99.90
9658;DHT22;4867;48.112;11.622;2024-02-26T02:59:06;1.90;99.90
9658;DHT22;4867;48.112;11.622;2024-02-26T03:01:34;1.90;99.90
9658;DHT22;4867;48.112;11.622;2024-02-26T03:04:02;1.90;99.90
9658;DHT22;4867;48.112;11.622;2024-02-26T03:06:30;1.80;99.90
9658;DHT22;4867;48.112;11.622;2024-02-26T03:08:57;1.80;99.90
9658;DHT22;4867;48.112;11.622;2024-02-26T03:11:25;1.80;99.90
9658;DHT22;4867;48.112;11.622;2024-02-26T03:13:53;1.80;99.90
9658;DHT22;4867;48.112;11.622;2024-02-26T03:16:21;1.70;99.90
9658;DHT22;4867;48.112;11.622;2024-02-26T03:18:48;1.70;99.90
9658;DHT22;4867;48.112;11.622;2024-02-26T03:21:16;1.70;99.90
9658;DHT22;4867;48.112;11.622;2024-02-26T03:23:43;1.60;99.90
9658;DHT22;4867;48.112;11.622;2024-02-26T03:26:11;1.70;99.90
9658;DHT22;4867;48.112;11.622;2024-02-26T03:28:41;1.70;99.90
9658;DHT22;4867;48.112;11.622;2024-02-26T03:31:09;1.60;99.90
9658;DHT22;4867;48.112;11.622;2024-02-26T03:33:40;1.70;99.90
9658;DHT22;4867;48.112;11.622;2024-02-26T03:36:07;1.70;99.90
9658;DHT22;4867;48.112;11.622;2024-02-26T03:38:35;1.70;99.90
9658;DHT22;4867;48.112;11.622;2024-02-26T03:41:04;2.60;99.90
9658;DHT22;4867;48.112;11.622;2024-02-26T03:43:31;1.80;99.90
9658;DHT22;4867;48.112;11.622;2024-02-26T03:45:59;1.70;99.90
9658;DHT22;4867;48.112;11.622;2024-02-26T03:48:27;1.70;99.90
9658;DHT22;4867;48.112;11.622;2024-02-26T03:50:55;1.80;99.90
9658;DHT22;4867;48.112;11.622;2024-02-26T03:53:22;1.80;99.90
9658;DHT22;4867;48.112;11.622;2024-02-26T03:55:50;1.80;99.90
9658;DHT22;4867;48.112;11.622;2024-02-26T03:58:19;1.80;99.90
9658;DHT22;4867;48.112;11.622;2024-02-26T04:00:47;1.80;99.90
9658;DHT22;4867;48.112;11.622;2024-02-26T04:03:17;1.80;99.90
9658;DHT22;4867;48.112;11.622;2024-02-26T04:05:44;1.80;99.90
9658;DHT22;4867;48.112;11.622;2024-02-26T04:08:12;1.80;99.90
9658;DHT22;4867;48.112;11.622;2024-02-26T04:10:40;1.80;99.90
9658;DHT22;4867;48.112;11.622;2024-02-26T04:13:08;1.70;99.90
9658;DHT22;4867;48.112;11.622;2024-02-26T04:15:35;1.70;99.90
9658;DHT22;4867;48.112;11.622;2024-02-26T04:18:03;1.70;99.90
9658;DHT22;4867;48.112;11.622;2024-02-26T04:20:31;1.70;99.90
9658;DHT22;4867;48.112;11.622;2024-02-26T04:22:58;1.80;99.90
9658;DHT22;4867;48.112;11.622;2024-02-26T04:25:26;1.70;99.90
9658;DHT22;4867;48.112;11.622;2024-02-26T04:27:54;1.70;99.90
9658;DHT22;4867;48.112;11.622;2024-02-26T04:30:21;1.70;99.90
9658;DHT22;4867;48.112;11.622;2024-02-26T04:32:49;1.80;99.90
9658;DHT22;4867;48.112;11.622;2024-02-26T04:35:17;1.90;99.90
9658;DHT22;4867;48.112;11.622;2024-02-26T04:37:44;1.80;99.90
9658;DHT22;4867;48.112;11.622;2024-02-26T04:40:12;1.80;99.90
9658;DHT22;4867;48.112;11.622;2024-02-26T04:42:39;1.70;99.90
9658;DHT22;4867;48.112;11.622;2024-02-26T04:45:07;1.70;99.90
9658;DHT22;4867;48.112;11.622;2024-02-26T04:47:35;1.70;99.90
9658;DHT22;4867;48.112;11.622;2024-02-26T04:50:03;1.90;99.90
9658;DHT22;4867;48.112;11.622;2024-02-26T04:52:31;1.70;99.90
9658;DHT22;4867;48.112;11.622;2024-02-26T04:54:58;1.70;99.90
9658;DHT22;4867;48.112;11.622;2024-02-26T04:57:27;1.70;99.90
9658;DHT22;4867;48.112;11.622;2024-02-26T04:59:54;1.70;99.90
9658;DHT22;4867;48.112;11.622;2024-02-26T05:02:22;1.60;99.90
9658;DHT22;4867;48.112;11.622;2024-02-26T05:04:50;1.60;99.90
9658;DHT22;4867;48.112;11.622;2024-02-26T05:07:18;1.60;99.90
9658;DHT22;4867;48.112;11.622;2024-02-26T05:09:46;1.60;99.90
9658;DHT22;4867;48.112;11.622;2024-02-26T05:12:16;1.60;99.90
9658;DHT22;4867;48.112;11.622;2024-02-26T05:14:44;1.60;99.90
9658;DHT22;4867;48.112;11.622;2024-02-26T05:17:11;1.50;99.90
9658;DHT22;4867;48.112;11.622;2024-02-26T05:19:39;1.50;99.90
9658;DHT22;4867;48.112;11.622;2024-02-26T05:22:06;1.60;99.90
9658;DHT22;4867;48.112;11.622;2024-02-26T05:24:33;1.60;99.90
9658;DHT22;4867;48.112;11.622;2024-02-26T05:27:01;1.70;99.90
9658;DHT22;4867;48.112;11.622;2024-02-26T05:29:29;1.70;99.90
9658;DHT22;4867;48.112;11.622;2024-02-26T05:31:56;1.60;99.90
9658;DHT22;4867;48.112;11.622;2024-02-26T05:34:23;1.80;99.90
9658;DHT22;4867;48.112;11.622;2024-02-26T05:36:51;1.60;99.90
9658;DHT22;4867;48.112;11.622;2024-02-26T05:39:18;1.70;99.90
9658;DHT22;4867;48.112;11.622;2024-02-26T05:41:47;1.70;99.90
9658;DHT22;4867;48.112;11.622;2024-02-26T05:44:16;1.60;99.90
9658;DHT22;4867;48.112;11.622;2024-02-26T05:46:44;1.70;99.90
9658;DHT22;4867;48.112;11.622;2024-02-26T05:49:11;1.70;99.90
9658;DHT22;4867;48.112;11.622;2024-02-26T05:51:38;1.70;99.90
9658;DHT22;4867;48.112;11.622;2024-02-26T05:54:06;1.80;99.90
9658;DHT22;4867;48.112;11.622;2024-02-26T05:56:35;1.70;99.90
9658;DHT22;4867;48.112;11.622;2024-02-26T05:59:03;1.80;99.90
9658;DHT22;4867;48.112;11.622;2024-02-26T06:01:30;1.80;99.90
9658;DHT22;4867;48.112;11.622;2024-02-26T06:03:58;1.80;99.90
9658;DHT22;4867;48.112;11.622;2024-02-26T06:06:25;1.80;99.90
9658;DHT22;4867;48.112;11.622;2024-02-26T06:08:53;1.80;99.90
9658;DHT22;4867;48.112;11.622;2024-02-26T06:11:20;1.90;99.90
9658;DHT22;4867;48.112;11.622;2024-02-26T06:13:50;1.90;99.90
9658;DHT22;4867;48.112;11.622;2024-02-26T06:16:17;2.00;99.90
9658;DHT22;4867;48.112;11.622;2024-02-26T06:18:44;2.00;99.90
9658;DHT22;4867;48.112;11.622;2024-02-26T06:21:12;2.10;99.90
9658;DHT22;4867;48.112;11.622;2024-02-26T06:23:40;2.20;99.90
9658;DHT22;4867;48.112;11.622;2024-02-26T06:26:08;2.20;99.90
9658;DHT22;4867;48.112;11.622;2024-02-26T06:28:35;2.30;99.90
9658;DHT22;4867;48.112;11.622;2024-02-26T06:31:04;2.30;99.90
9658;DHT22;4867;48.112;11.622;2024-02-26T06:33:31;2.30;99.90
9658;DHT22;4867;48.112;11.622;2024-02-26T06:35:59;2.40;99.90
9658;DHT22;4867;48.112;11.622;2024-02-26T06:38:26;2.60;99.90
9658;DHT22;4867;48.112;11.622;2024-02-26T06:40:54;2.70;99.90
9658;DHT22;4867;48.112;11.622;2024-02-26T06:43:21;2.60;99.90
9658;DHT22;4867;48.112;11.622;2024-02-26T06:45:48;2.70;99.90
9658;DHT22;4867;48.112;11.622;2024-02-26T06:48:16;2.60;99.90
9658;DHT22;4867;48.112;11.622;2024-02-26T06:50:44;2.80;99.90
9658;DHT22;4867;48.112;11.622;2024-02-26T06:53:11;2.90;99.90
9658;DHT22;4867;48.112;11.622;2024-02-26T06:55:39;3.00;99.90
9658;DHT22;4867;48.112;11.622;2024-02-26T06:58:08;3.10;99.90
9658;DHT22;4867;48.112;11.622;2024-02-26T07:00:35;3.20;99.90
9658;DHT22;4867;48.112;11.622;2024-02-26T07:03:03;3.20;99.90
9658;DHT22;4867;48.112;11.622;2024-02-26T07:05:31;3.40;99.90
9658;DHT22;4867;48.112;11.622;2024-02-26T07:07:58;3.40;99.90
9658;DHT22;4867;48.112;11.622;2024-02-26T07:10:26;3.60;99.90
9658;DHT22;4867;48.112;11.622;2024-02-26T07:12:53;3.60;99.90
9658;DHT22;4867;48.112;11.622;2024-02-26T07:15:21;3.70;99.90
9658;DHT22;4867;48.112;11.622;2024-02-26T07:17:48;3.80;99.90
9658;DHT22;4867;48.112;11.622;2024-02-26T07:20:17;3.90;99.90
9658;DHT22;4867;48.112;11.622;2024-02-26T07:22:45;3.90;99.90
9658;DHT22;4867;48.112;11.622;2024-02-26T07:25:13;4.00;99.90
9658;DHT22;4867;48.112;11.622;2024-02-26T07:27:41;4.10;99.90
9658;DHT22;4867;48.112;11.622;2024-02-26T07:30:09;4.10;99.90
9658;DHT22;4867;48.112;11.622;2024-02-26T07:32:37;4.20;99.90
9658;DHT22;4867;48.112;11.622;2024-02-26T07:35:04;4.30;99.90
9658;DHT22;4867;48.112;11.622;2024-02-26T07:37:33;4.40;99.90
9658;DHT22;4867;48.112;11.622;2024-02-26T07:40:02;4.40;99.90
9658;DHT22;4867;48.112;11.622;2024-02-26T07:42:30;4.50;99.90
9658;DHT22;4867;48.112;11.622;2024-02-26T07:44:58;4.50;99.90
9658;DHT22;4867;48.112;11.622;2024-02-26T07:47:26;4.60;99.90
9658;DHT22;4867;48.112;11.622;2024-02-26T07:49:53;4.70;99.90
9658;DHT22;4867;48.112;11.622;2024-02-26T07:52:21;4.80;99.90
9658;DHT22;4867;48.112;11.622;2024-02-26T07:54:48;4.80;99.90
9658;DHT22;4867;48.112;11.622;2024-02-26T07:57:15;4.90;99.90
9658;DHT22;4867;48.112;11.622;2024-02-26T07:59:45;5.00;99.90
9658;DHT22;4867;48.112;11.622;2024-02-26T08:02:17;5.10;99.90
9658;DHT22;4867;48.112;11.622;2024-02-26T08:04:45;5.20;99.90
9658;DHT22;4867;48.112;11.622;2024-02-26T08:07:12;5.30;99.90
9658;DHT22;4867;48.112;11.622;2024-02-26T08:09:40;5.40;99.90
9658;DHT22;4867;48.112;11.622;2024-02-26T08:12:08;5.40;99.90
9658;DHT22;4867;48.112;11.622;2024-02-26T08:14:35;5.30;99.90
9658;DHT22;4867;48.112;11.622;2024-02-26T08:17:02;5.40;99.90
9658;DHT22;4867;48.112;11.622;2024-02-26T08:19:30;5.50;99.90
9658;DHT22;4867;48.112;11.622;2024-02-26T08:21:57;5.60;99.90
9658;DHT22;4867;48.112;11.622;2024-02-26T08:24:28;5.60;99.90
9658;DHT22;4867;48.112;11.622;2024-02-26T08:26:56;5.80;99.90
9658;DHT22;4867;48.112;11.622;2024-02-26T08:29:23;5.90;99.90
9658;DHT22;4867;48.112;11.622;2024-02-26T08:31:50;6.00;99.90
9658;DHT22;4867;48.112;11.622;2024-02-26T08:34:19;6.10;99.90
9658;DHT22;4867;48.112;11.622;2024-02-26T08:36:46;6.20;99.90
9658;DHT22;4867;48.112;11.622;2024-02-26T08:39:16;6.30;99.90
9658;DHT22;4867;48.112;11.622;2024-02-26T08:41:45;6.50;99.90
9658;DHT22;4867;48.112;11.622;2024-02-26T08:44:12;6.60;99.90
9658;DHT22;4867;48.112;11.622;2024-02-26T08:46:39;6.80;99.90
9658;DHT22;4867;48.112;11.622;2024-02-26T08:49:07;7.00;99.90
9658;DHT22;4867;48.112;11.622;2024-02-26T08:51:34;7.10;99.90
9658;DHT22;4867;48.112;11.622;2024-02-26T08:54:02;7.30;99.90
9658;DHT22;4867;48.112;11.622;2024-02-26T08:56:29;7.50;99.90
9658;DHT22;4867;48.112;11.622;2024-02-26T08:58:57;7.60;99.90
9658;DHT22;4867;48.112;11.622;2024-02-26T09:01:26;7.70;99.90
9658;DHT22;4867;48.112;11.622;2024-02-26T09:03:53;7.80;99.90
9658;DHT22;4867;48.112;11.622;2024-02-26T09:06:21;7.90;99.90
9658;DHT22;4867;48.112;11.622;2024-02-26T09:08:49;7.90;99.90
9658;DHT22;4867;48.112;11.622;2024-02-26T09:11:17;8.00;99.90
9658;DHT22;4867;48.112;11.622;2024-02-26T09:13:44;8.00;99.90
9658;DHT22;4867;48.112;11.622;2024-02-26T09:16:12;8.10;99.90
9658;DHT22;4867;48.112;11.622;2024-02-26T09:18:40;8.10;99.90
9658;DHT22;4867;48.112;11.622;2024-02-26T09:21:07;8.20;99.90
9658;DHT22;4867;48.112;11.622;2024-02-26T09:23:35;8.30;99.90
9658;DHT22;4867;48.112;11.622;2024-02-26T09:26:05;8.30;99.90
9658;DHT22;4867;48.112;11.622;2024-02-26T09:28:33;8.40;99.90
9658;DHT22;4867;48.112;11.622;2024-02-26T09:31:04;8.50;99.90
9658;DHT22;4867;48.112;11.622;2024-02-26T09:33:33;8.60;99.90
9658;DHT22;4867;48.112;11.622;2024-02-26T09:36:01;8.60;99.90
9658;DHT22;4867;48.112;11.622;2024-02-26T09:38:29;8.60;99.90
9658;DHT22;4867;48.112;11.622;2024-02-26T09:41:05;8.70;99.90
9658;DHT22;4867;48.112;11.622;2024-02-26T09:43:36;8.80;99.90
9658;DHT22;4867;48.112;11.622;2024-02-26T09:46:04;8.80;99.90
9658;DHT22;4867;48.112;11.622;2024-02-26T09:48:32;8.90;99.90
9658;DHT22;4867;48.112;11.622;2024-02-26T09:51:03;9.00;99.90
9658;DHT22;4867;48.112;11.622;2024-02-26T09:53:32;9.20;99.90
9658;DHT22;4867;48.112;11.622;2024-02-26T09:55:59;9.30;99.90
9658;DHT22;4867;48.112;11.622;2024-02-26T09:58:28;9.40;99.90
9658;DHT22;4867;48.112;11.622;2024-02-26T10:00:57;9.40;99.90
9658;DHT22;4867;48.112;11.622;2024-02-26T10:03:39;9.50;99.90
9658;DHT22;4867;48.112;11.622;2024-02-26T10:06:08;9.40;99.90
9658;DHT22;4867;48.112;11.622;2024-02-26T10:08:36;9.50;99.90
9658;DHT22;4867;48.112;11.622;2024-02-26T10:11:09;9.50;99.90
9658;DHT22;4867;48.112;11.622;2024-02-26T10:13:37;9.60;99.90
9658;DHT22;4867;48.112;11.622;2024-02-26T10:16:06;9.60;99.90
9658;DHT22;4867;48.112;11.622;2024-02-26T10:18:50;9.70;99.90
9658;DHT22;4867;48.112;11.622;2024-02-26T10:21:26;9.80;99.90
9658;DHT22;4867;48.112;11.622;2024-02-26T10:23:54;9.80;99.90
9658;DHT22;4867;48.112;11.622;2024-02-26T10:26:22;9.90;99.90
9658;DHT22;4867;48.112;11.622;2024-02-26T10:28:49;10.00;99.90
9658;DHT22;4867;48.112;11.622;2024-02-26T10:31:22;10.10;99.90
9658;DHT22;4867;48.112;11.622;2024-02-26T10:33:55;10.10;99.90
9658;DHT22;4867;48.112;11.622;2024-02-26T10:36:33;10.20;99.90
9658;DHT22;4867;48.112;11.622;2024-02-26T10:39:14;10.30;99.90
9658;DHT22;4867;48.112;11.622;2024-02-26T10:41:43;10.40;99.90
9658;DHT22;4867;48.112;11.622;2024-02-26T10:44:12;10.50;99.90
9658;DHT22;4867;48.112;11.622;2024-02-26T10:46:47;10.60;99.90
9658;DHT22;4867;48.112;11.622;2024-02-26T10:49:17;10.70;99.90
9658;DHT22;4867;48.112;11.622;2024-02-26T10:51:54;10.80;99.90
9658;DHT22;4867;48.112;11.622;2024-02-26T10:54:25;10.90;99.90
9658;DHT22;4867;48.112;11.622;2024-02-26T10:56:56;10.90;99.90
9658;DHT22;4867;48.112;11.622;2024-02-26T10:59:24;10.90;99.90
9658;DHT22;4867;48.112;11.622;2024-02-26T11:01:51;11.10;99.90
9658;DHT22;4867;48.112;11.622;2024-02-26T11:04:20;11.20;99.90
9658;DHT22;4867;48.112;11.622;2024-02-26T11:06:49;11.30;99.90
9658;DHT22;4867;48.112;11.622;2024-02-26T11:09:19;11.50;99.90
9658;DHT22;4867;48.112;11.622;2024-02-26T11:11:48;11.60;99.90
9658;DHT22;4867;48.112;11.622;2024-02-26T11:14:16;11.70;99.90
9658;DHT22;4867;48.112;11.622;2024-02-26T11:16:44;11.80;99.90
9658;DHT22;4867;48.112;11.622;2024-02-26T11:19:15;12.00;99.90
9658;DHT22;4867;48.112;11.622;2024-02-26T11:21:43;12.10;99.90
9658;DHT22;4867;48.112;11.622;2024-02-26T11:24:15;12.20;99.90
9658;DHT22;4867;48.112;11.622;2024-02-26T11:26:52;12.20;99.90
9658;DHT22;4867;48.112;11.622;2024-02-26T11:29:33;12.30;99.90
9658;DHT22;4867;48.112;11.622;2024-02-26T11:32:02;12.40;99.90
9658;DHT22;4867;48.112;11.622;2024-02-26T11:34:29;12.40;99.90
9658;DHT22;4867;48.112;11.622;2024-02-26T11:36:57;12.50;99.90
9658;DHT22;4867;48.112;11.622;2024-02-26T11:39:35;12.40;99.90
9658;DHT22;4867;48.112;11.622;2024-02-26T11:42:09;12.60;99.90
9658;DHT22;4867;48.112;11.622;2024-02-26T11:44:38;12.60;99.90
9658;DHT22;4867;48.112;11.622;2024-02-26T11:47:17;12.50;99.90
9658;DHT22;4867;48.112;11.622;2024-02-26T11:49:46;12.50;99.90
9658;DHT22;4867;48.112;11.622;2024-02-26T11:52:15;12.50;99.90
9658;DHT22;4867;48.112;11.622;2024-02-26T11:54:58;12.50;99.90
9658;DHT22;4867;48.112;11.622;2024-02-26T11:57:39;12.70;99.90
9658;DHT22;4867;48.112;11.622;2024-02-26T12:00:12;12.80;99.90
9658;DHT22;4867;48.112;11.622;2024-02-26T12:02:46;13.00;99.90
9658;DHT22;4867;48.112;11.622;2024-02-26T12:05:16;12.90;99.90
9658;DHT22;4867;48.112;11.622;2024-02-26T12:07:45;12.90;99.90
9658;DHT22;4867;48.112;11.622;2024-02-26T12:12:42;13.10;99.90
9658;DHT22;4867;48.112;11.622;2024-02-26T12:15:10;13.10;99.90
9658;DHT22;4867;48.112;11.622;2024-02-26T12:17:38;13.20;99.90
9658;DHT22;4867;48.112;11.622;2024-02-26T12:20:13;13.20;99.90
9658;DHT22;4867;48.112;11.622;2024-02-26T12:22:41;13.30;98.90
9658;DHT22;4867;48.112;11.622;2024-02-26T12:25:11;13.30;99.40
9658;DHT22;4867;48.112;11.622;2024-02-26T12:28:07;13.20;99.20
9658;DHT22;4867;48.112;11.622;2024-02-26T12:30:36;13.10;99.10
9658;DHT22;4867;48.112;11.622;2024-02-26T12:33:07;12.90;97.90
9658;DHT22;4867;48.112;11.622;2024-02-26T12:35:53;12.90;99.00
9658;DHT22;4867;48.112;11.622;2024-02-26T12:38:21;13.00;98.60
9658;DHT22;4867;48.112;11.622;2024-02-26T12:40:48;13.10;98.60
9658;DHT22;4867;48.112;11.622;2024-02-26T12:43:22;13.10;98.70
9658;DHT22;4867;48.112;11.622;2024-02-26T12:45:50;13.20;98.00
9658;DHT22;4867;48.112;11.622;2024-02-26T12:48:17;13.10;98.70
9658;DHT22;4867;48.112;11.622;2024-02-26T12:50:51;13.00;98.90
9658;DHT22;4867;48.112;11.622;2024-02-26T12:53:19;12.80;98.70
9658;DHT22;4867;48.112;11.622;2024-02-26T12:55:47;12.80;96.80
9658;DHT22;4867;48.112;11.622;2024-02-26T12:58:15;12.70;97.00
9658;DHT22;4867;48.112;11.622;2024-02-26T13:00:43;12.90;98.30
9658;DHT22;4867;48.112;11.622;2024-02-26T13:03:10;13.10;99.50
9658;DHT22;4867;48.112;11.622;2024-02-26T13:05:38;13.20;99.90
9658;DHT22;4867;48.112;11.622;2024-02-26T13:08:06;13.20;99.90
9658;DHT22;4867;48.112;11.622;2024-02-26T13:10:36;13.20;99.90
9658;DHT22;4867;48.112;11.622;2024-02-26T13:13:19;13.20;99.90
9658;DHT22;4867;48.112;11.622;2024-02-26T13:15:47;13.00;99.90
9658;DHT22;4867;48.112;11.622;2024-02-26T13:18:21;13.00;99.90
9658;DHT22;4867;48.112;11.622;2024-02-26T13:20:50;13.00;99.90
9658;DHT22;4867;48.112;11.622;2024-02-26T13:23:18;13.00;99.90
9658;DHT22;4867;48.112;11.622;2024-02-26T13:25:47;13.00;99.90
9658;DHT22;4867;48.112;11.622;2024-02-26T13:28:17;13.10;99.90
9658;DHT22;4867;48.112;11.622;2024-02-26T13:30:52;13.10;99.90
9658;DHT22;4867;48.112;11.622;2024-02-26T13:33:22;13.00;99.90
9658;DHT22;4867;48.112;11.622;2024-02-26T13:35:52;13.00;99.90
9658;DHT22;4867;48.112;11.622;2024-02-26T13:38:21;13.00;99.90
9658;DHT22;4867;48.112;11.622;2024-02-26T13:40:52;13.00;99.90
9658;DHT22;4867;48.112;11.622;2024-02-26T13:43:20;13.00;99.90
9658;DHT22;4867;48.112;11.622;2024-02-26T13:45:49;13.00;99.90
9658;DHT22;4867;48.112;11.622;2024-02-26T13:48:18;13.00;99.90
9658;DHT22;4867;48.112;11.622;2024-02-26T13:50:51;12.80;99.90
9658;DHT22;4867;48.112;11.622;2024-02-26T13:53:22;12.90;99.90
9658;DHT22;4867;48.112;11.622;2024-02-26T13:55:59;12.90;99.90
9658;DHT22;4867;48.112;11.622;2024-02-26T13:58:29;12.90;99.90
9658;DHT22;4867;48.112;11.622;2024-02-26T14:01:07;12.90;99.90
9658;DHT22;4867;48.112;11.622;2024-02-26T14:03:47;13.00;99.90
9658;DHT22;4867;48.112;11.622;2024-02-26T14:06:16;12.90;99.90
9658;DHT22;4867;48.112;11.622;2024-02-26T14:08:51;12.70;99.90
9658;DHT22;4867;48.112;11.622;2024-02-26T14:11:21;12.60;99.90
9658;DHT22;4867;48.112;11.622;2024-02-26T14:13:51;12.50;99.90
9658;DHT22;4867;48.112;11.622;2024-02-26T14:16:19;12.40;99.90
9658;DHT22;4867;48.112;11.622;2024-02-26T14:18:59;12.40;99.90
9658;DHT22;4867;48.112;11.622;2024-02-26T14:21:30;12.40;99.90
9658;DHT22;4867;48.112;11.622;2024-02-26T14:23:59;12.40;99.90
9658;DHT22;4867;48.112;11.622;2024-02-26T14:26:29;12.30;99.90
9658;DHT22;4867;48.112;11.622;2024-02-26T14:28:59;12.30;99.90
9658;DHT22;4867;48.112;11.622;2024-02-26T14:31:33;12.10;99.90
9658;DHT22;4867;48.112;11.622;2024-02-26T14:34:13;12.10;99.90
9658;DHT22;4867;48.112;11.622;2024-02-26T14:36:46;12.10;99.90
9658;DHT22;4867;48.112;11.622;2024-02-26T14:39:19;12.10;99.90
9658;DHT22;4867;48.112;11.622;2024-02-26T14:41:55;12.10;99.90
9658;DHT22;4867;48.112;11.622;2024-02-26T14:44:35;12.10;99.90
9658;DHT22;4867;48.112;11.622;2024-02-26T14:47:03;12.10;99.90
9658;DHT22;4867;48.112;11.622;2024-02-26T14:49:35;12.10;99.90
9658;DHT22;4867;48.112;11.622;2024-02-26T14:52:05;12.00;99.90
9658;DHT22;4867;48.112;11.622;2024-02-26T14:54:33;12.00;99.90
9658;DHT22;4867;48.112;11.622;2024-02-26T14:57:12;12.00;99.90
9658;DHT22;4867;48.112;11.622;2024-02-26T14:59:40;11.90;99.90
9658;DHT22;4867;48.112;11.622;2024-02-26T15:02:17;11.80;99.90
9658;DHT22;4867;48.112;11.622;2024-02-26T15:04:47;11.70;99.90
9658;DHT22;4867;48.112;11.622;2024-02-26T15:07:25;11.60;99.90
9658;DHT22;4867;48.112;11.622;2024-02-26T15:09:55;11.60;99.90
9658;DHT22;4867;48.112;11.622;2024-02-26T15:12:28;11.60;99.90
9658;DHT22;4867;48.112;11.622;2024-02-26T15:14:58;11.50;99.90
9658;DHT22;4867;48.112;11.622;2024-02-26T15:18:08;11.50;99.90
9658;DHT22;4867;48.112;11.622;2024-02-26T15:20:37;11.40;99.90
9658;DHT22;4867;48.112;11.622;2024-02-26T15:23:21;11.40;99.90
9658;DHT22;4867;48.112;11.622;2024-02-26T15:26:11;11.30;99.90
9658;DHT22;4867;48.112;11.622;2024-02-26T15:28:40;11.20;99.90
9658;DHT22;4867;48.112;11.622;2024-02-26T15:31:08;11.20;99.90
9658;DHT22;4867;48.112;11.622;2024-02-26T15:33:39;11.20;99.90
9658;DHT22;4867;48.112;11.622;2024-02-26T15:36:13;11.20;99.90
9658;DHT22;4867;48.112;11.622;2024-02-26T15:38:55;11.20;99.90
9658;DHT22;4867;48.112;11.622;2024-02-26T15:41:36;11.10;99.90
9658;DHT22;4867;48.112;11.622;2024-02-26T15:44:06;11.10;99.90
9658;DHT22;4867;48.112;11.622;2024-02-26T15:46:42;10.90;99.90
9658;DHT22;4867;48.112;11.622;2024-02-26T15:49:12;11.00;99.90
9658;DHT22;4867;48.112;11.622;2024-02-26T15:51:45;11.00;99.90
9658;DHT22;4867;48.112;11.622;2024-02-26T15:54:14;10.90;99.90
9658;DHT22;4867;48.112;11.622;2024-02-26T15:56:43;10.90;99.90
9658;DHT22;4867;48.112;11.622;2024-02-26T15:59:11;10.90;99.90
9658;DHT22;4867;48.112;11.622;2024-02-26T16:01:48;10.80;99.90
9658;DHT22;4867;48.112;11.622;2024-02-26T16:04:16;10.80;99.90
9658;DHT22;4867;48.112;11.622;2024-02-26T16:07:07;10.80;99.90
9658;DHT22;4867;48.112;11.622;2024-02-26T16:09:41;10.70;99.90
9658;DHT22;4867;48.112;11.622;2024-02-26T16:12:15;10.70;99.90
9658;DHT22;4867;48.112;11.622;2024-02-26T16:14:51;10.70;99.90